Time;durP1;ratioP1;P1;durP2;ratioP2;P2;SDS_P1;SDS_P2;PMS_P1;PMS_P2;Temp;Humidity;BMP_temperature;BMP_pressure;BME280_temperature;BME280_humidity;BME280_pressure;Samples;Min_cycle;Max_cycle;Signal;HPM_P1;HPM_P2
2022/04/02 00:01:23;;;;;;;0.52;0.52;;;-0.50;99.90;;;;;;4993584;28;20049;-72
2022/04/02 00:03:48;;;;;;;0.50;0.50;;;-0.50;99.90;;;;;;4991944;28;20038;-72
2022/04/02 00:06:14;;;;;;;0.60;0.60;;;-0.50;99.90;;;;;;4993491;28;20077;-72
2022/04/02 00:08:40;;;;;;;0.60;0.60;;;-0.60;99.90;;;;;;4992464;28;20038;-72
2022/04/02 00:11:07;;;;;;;0.60;0.60;;;-0.50;99.90;;;;;;4986180;28;20045;-72
2022/04/02 00:13:33;;;;;;;1.50;1.45;;;-0.50;99.90;;;;;;4992918;28;20034;-72
2022/04/02 00:15:59;;;;;;;0.68;0.68;;;-0.50;99.90;;;;;;4992661;28;20064;-72
2022/04/02 00:18:25;;;;;;;0.70;0.70;;;-0.50;99.90;;;;;;4992465;28;20041;-72
2022/04/02 00:20:51;;;;;;;0.60;0.60;;;-0.50;99.90;;;;;;4999868;28;20060;-72
2022/04/02 00:26:02;;;;;;;0.60;0.60;;;-0.50;99.90;;;;;;5007881;28;20132;-72
2022/04/02 00:28:31;;;;;;;1.02;1.02;;;-0.50;99.90;;;;;;5009194;28;20132;-72
2022/04/02 00:30:57;;;;;;;0.85;0.85;;;-0.50;99.90;;;;;;5008652;28;20056;-72
2022/04/02 00:33:22;;;;;;;0.60;0.60;;;-0.50;99.90;;;;;;5005910;28;20554;-71
2022/04/02 00:35:48;;;;;;;0.60;0.60;;;-0.50;99.90;;;;;;5001085;28;20478;-72
2022/04/02 00:38:13;;;;;;;0.50;0.50;;;-0.50;99.90;;;;;;4992469;28;20046;-72
2022/04/02 00:40:42;;;;;;;0.60;0.60;;;-0.40;99.90;;;;;;4989668;28;20557;-72
2022/04/02 00:43:30;;;;;;;0.70;0.70;;;-0.50;99.90;;;;;;5001716;28;20061;-72
2022/04/02 00:45:58;;;;;;;0.90;0.90;;;-0.50;99.90;;;;;;4992240;28;20060;-72
2022/04/02 00:48:24;;;;;;;0.60;0.60;;;-0.40;99.90;;;;;;5008776;28;20076;-72
2022/04/02 00:50:52;;;;;;;0.60;0.60;;;-0.40;99.90;;;;;;5008618;28;20137;-72
2022/04/02 00:53:19;;;;;;;0.60;0.60;;;-0.40;99.90;;;;;;4992553;28;20160;-72
2022/04/02 00:55:45;;;;;;;0.75;0.75;;;-0.40;99.90;;;;;;5008491;28;20037;-72
2022/04/02 00:58:11;;;;;;;0.50;0.50;;;-0.40;99.90;;;;;;4993817;28;20392;-72
2022/04/02 01:00:39;;;;;;;0.60;0.60;;;-0.50;99.90;;;;;;5008491;28;20128;-72
2022/04/02 01:03:07;;;;;;;0.75;0.75;;;-0.50;99.90;;;;;;5008085;28;20129;-72
2022/04/02 01:05:34;;;;;;;0.70;0.70;;;-0.40;99.90;;;;;;5007800;28;20049;-72
2022/04/02 01:08:01;;;;;;;0.60;0.60;;;-0.40;99.90;;;;;;5005022;28;20451;-72
2022/04/02 01:10:28;;;;;;;0.52;0.52;;;-0.50;99.90;;;;;;4991947;28;20046;-72
2022/04/02 01:12:54;;;;;;;0.65;0.65;;;-0.50;99.90;;;;;;5008712;28;20044;-72
2022/04/02 01:15:19;;;;;;;0.85;0.85;;;-0.50;99.90;;;;;;4991894;28;20038;-71
2022/04/02 01:17:46;;;;;;;0.75;0.75;;;-0.50;99.90;;;;;;5007561;28;20045;-72
2022/04/02 01:20:12;;;;;;;0.60;0.60;;;-0.50;99.90;;;;;;5007842;28;20536;-72
2022/04/02 01:22:38;;;;;;;0.50;0.50;;;-0.60;99.90;;;;;;5008079;28;20046;-72
2022/04/02 01:25:05;;;;;;;0.60;0.60;;;-0.60;99.90;;;;;;5008246;28;20072;-72
2022/04/02 01:27:31;;;;;;;0.95;0.95;;;-0.60;99.90;;;;;;5007954;28;20064;-72
2022/04/02 01:29:56;;;;;;;0.60;0.60;;;-0.60;99.90;;;;;;5000547;28;20046;-72
2022/04/02 01:32:22;;;;;;;0.60;0.60;;;-0.60;99.90;;;;;;4972588;28;20117;-72
2022/04/02 01:34:47;;;;;;;0.63;0.63;;;-0.60;99.90;;;;;;5006997;28;20410;-72
2022/04/02 01:37:15;;;;;;;0.50;0.50;;;-0.60;99.90;;;;;;4991097;28;20046;-72
2022/04/02 01:39:42;;;;;;;0.60;0.60;;;-0.60;99.90;;;;;;5007817;28;20050;-72
2022/04/02 01:42:07;;;;;;;0.60;0.60;;;-0.60;99.90;;;;;;4988192;28;20502;-72
2022/04/02 01:44:33;;;;;;;0.50;0.50;;;-0.60;99.90;;;;;;4988392;28;20065;-71
2022/04/02 01:46:59;;;;;;;0.60;0.60;;;-0.70;99.90;;;;;;4993278;28;20387;-72
2022/04/02 01:49:25;;;;;;;0.50;0.50;;;-0.70;99.90;;;;;;5007867;28;20057;-72
2022/04/02 01:51:51;;;;;;;0.65;0.65;;;-0.70;99.90;;;;;;4974807;28;20493;-72
2022/04/02 01:54:17;;;;;;;0.82;0.82;;;-0.70;99.90;;;;;;4994129;28;20042;-72
2022/04/02 01:56:43;;;;;;;0.70;0.70;;;-0.80;99.90;;;;;;5007516;28;20060;-72
2022/04/02 01:59:09;;;;;;;21.13;2.83;;;-0.80;99.90;;;;;;4991317;28;20050;-72
2022/04/02 02:01:34;;;;;;;0.60;0.60;;;-0.90;99.90;;;;;;5002120;28;20089;-71
2022/04/02 02:04:00;;;;;;;0.60;0.60;;;-0.90;99.90;;;;;;4988015;28;20162;-71
2022/04/02 02:06:25;;;;;;;0.50;0.50;;;-0.90;99.90;;;;;;5002513;28;20124;-71
2022/04/02 02:08:51;;;;;;;0.60;0.60;;;-0.90;99.90;;;;;;4991027;28;20041;-72
2022/04/02 02:11:18;;;;;;;0.50;0.50;;;-1.00;99.90;;;;;;4991552;28;20046;-73
2022/04/02 02:13:43;;;;;;;0.50;0.50;;;-1.00;99.90;;;;;;4991104;28;20049;-72
2022/04/02 02:16:09;;;;;;;0.60;0.60;;;-1.00;99.90;;;;;;4988220;28;20383;-72
2022/04/02 02:18:35;;;;;;;0.70;0.70;;;-1.00;99.90;;;;;;5007496;28;20096;-72
2022/04/02 02:21:00;;;;;;;51.92;3.45;;;-1.00;99.90;;;;;;4990687;28;20053;-71
2022/04/02 02:23:26;;;;;;;0.60;0.60;;;-1.10;99.90;;;;;;5007217;28;20417;-72
2022/04/02 02:25:52;;;;;;;0.50;0.50;;;-1.00;99.90;;;;;;4991159;28;20497;-72
2022/04/02 02:28:17;;;;;;;0.60;0.60;;;-1.00;99.90;;;;;;4990885;28;20085;-72
2022/04/02 02:30:43;;;;;;;0.90;0.90;;;-1.00;99.90;;;;;;5023189;28;20074;-72
2022/04/02 02:35:53;;;;;;;0.50;0.50;;;-1.00;99.90;;;;;;4991840;28;20058;-71
2022/04/02 02:38:20;;;;;;;0.50;0.50;;;-1.10;99.90;;;;;;5000845;28;20149;-71
2022/04/02 02:40:47;;;;;;;0.60;0.60;;;-1.10;99.90;;;;;;5006910;28;20045;-71
2022/04/02 02:43:14;;;;;;;0.50;0.50;;;-1.00;99.90;;;;;;5007577;28;20061;-71
2022/04/02 02:45:39;;;;;;;0.60;0.60;;;-1.10;99.90;;;;;;4990111;28;20046;-71
2022/04/02 02:48:05;;;;;;;0.60;0.60;;;-1.00;99.90;;;;;;4990597;28;20037;-71
2022/04/02 02:50:31;;;;;;;0.60;0.60;;;-1.10;99.90;;;;;;4994226;28;20108;-71
2022/04/02 02:52:57;;;;;;;0.65;0.65;;;-1.10;99.90;;;;;;4994285;28;20112;-72
2022/04/02 02:55:22;;;;;;;0.57;0.57;;;-1.00;99.90;;;;;;5011203;28;20144;-71
2022/04/02 02:57:49;;;;;;;0.60;0.60;;;-1.00;99.90;;;;;;5007500;28;20034;-71
2022/04/02 03:00:16;;;;;;;0.50;0.50;;;-1.00;99.90;;;;;;5007303;28;20042;-71
2022/04/02 03:02:42;;;;;;;0.60;0.60;;;-1.00;99.90;;;;;;4994377;28;20053;-72
2022/04/02 03:05:12;;;;;;;0.57;0.57;;;-1.10;99.90;;;;;;4994761;28;20045;-71
2022/04/02 03:07:41;;;;;;;0.57;0.57;;;-1.10;99.90;;;;;;4993868;28;20037;-71
2022/04/02 03:10:07;;;;;;;0.70;0.70;;;-1.10;99.90;;;;;;5010742;28;20037;-71
2022/04/02 03:12:34;;;;;;;0.52;0.52;;;-1.10;99.90;;;;;;4994383;28;20045;-71
2022/04/02 03:15:01;;;;;;;0.50;0.50;;;-1.10;99.90;;;;;;5010375;28;20069;-71
2022/04/02 03:17:29;;;;;;;0.60;0.60;;;-1.10;99.90;;;;;;5010180;28;20379;-72
2022/04/02 03:19:55;;;;;;;0.60;0.60;;;-1.10;99.90;;;;;;4976375;28;20093;-72
2022/04/02 03:22:21;;;;;;;0.90;0.90;;;-1.20;99.90;;;;;;5010538;28;20486;-72
2022/04/02 03:24:47;;;;;;;0.82;0.82;;;-1.20;99.90;;;;;;5010219;28;20069;-72
2022/04/02 03:27:13;;;;;;;0.68;0.68;;;-1.20;99.90;;;;;;5009913;28;20046;-71
2022/04/02 03:29:39;;;;;;;0.60;0.60;;;-1.20;99.90;;;;;;5010215;28;20100;-72
2022/04/02 03:32:05;;;;;;;5.28;3.05;;;-1.20;99.90;;;;;;5010051;28;20049;-72
2022/04/02 03:34:31;;;;;;;0.60;0.60;;;-1.30;99.90;;;;;;4994050;28;20410;-71
2022/04/02 03:36:56;;;;;;;0.60;0.60;;;-1.30;99.90;;;;;;5011089;28;20042;-71
2022/04/02 03:39:22;;;;;;;0.60;0.60;;;-1.40;99.90;;;;;;5009642;28;20088;-72
2022/04/02 03:41:48;;;;;;;0.60;0.60;;;-1.40;99.90;;;;;;4993920;28;20041;-72
2022/04/02 03:44:13;;;;;;;0.60;0.60;;;-1.40;99.90;;;;;;5009936;28;20049;-72
2022/04/02 03:49:25;;;;;;;0.60;0.60;;;-1.40;99.90;;;;;;5009405;28;20137;-71
2022/04/02 03:51:51;;;;;;;0.70;0.70;;;-1.50;99.90;;;;;;5009920;28;20052;-71
2022/04/02 03:54:17;;;;;;;0.60;0.60;;;-1.50;99.90;;;;;;5009961;28;20228;-71
2022/04/02 03:56:43;;;;;;;0.60;0.60;;;-1.50;99.90;;;;;;4996785;28;20133;-72
2022/04/02 03:59:11;;;;;;;0.60;0.60;;;-1.60;99.90;;;;;;4993456;28;20044;-72
2022/04/02 04:01:37;;;;;;;0.68;0.68;;;-1.60;99.90;;;;;;5009606;28;20049;-71
2022/04/02 04:04:04;;;;;;;0.50;0.50;;;-1.60;99.90;;;;;;5010315;28;20120;-72
2022/04/02 04:06:31;;;;;;;0.50;0.50;;;-1.60;99.90;;;;;;5009850;28;20045;-72
2022/04/02 04:08:58;;;;;;;0.60;0.60;;;-1.60;99.90;;;;;;5006909;28;20081;-72
2022/04/02 04:11:25;;;;;;;0.52;0.52;;;-1.60;99.90;;;;;;4983208;28;20050;-72
2022/04/02 04:13:52;;;;;;;0.50;0.50;;;-1.70;99.90;;;;;;4992239;28;20042;-71
2022/04/02 04:16:18;;;;;;;0.70;0.70;;;-1.70;99.90;;;;;;5009709;28;20255;-71
2022/04/02 04:18:43;;;;;;;0.65;0.65;;;-1.70;99.90;;;;;;5005037;28;20145;-72
2022/04/02 04:21:09;;;;;;;0.70;0.70;;;-1.70;99.90;;;;;;4990125;28;20494;-72
2022/04/02 04:23:34;;;;;;;0.70;0.70;;;-1.70;99.90;;;;;;5008282;28;20042;-72
2022/04/02 04:26:01;;;;;;;0.60;0.60;;;-1.70;99.90;;;;;;5024333;28;20057;-72
2022/04/02 04:28:26;;;;;;;0.60;0.60;;;-1.70;99.90;;;;;;5009238;28;20081;-72
2022/04/02 04:30:52;;;;;;;0.50;0.50;;;-1.80;99.90;;;;;;5010860;28;20088;-72
2022/04/02 04:33:18;;;;;;;0.60;0.60;;;-1.70;99.90;;;;;;4996391;28;20552;-72
2022/04/02 04:35:43;;;;;;;0.70;0.70;;;-1.70;99.90;;;;;;4996028;28;20131;-72
2022/04/02 04:38:09;;;;;;;0.65;0.65;;;-1.80;99.90;;;;;;4995457;28;20038;-72
2022/04/02 04:40:35;;;;;;;0.70;0.70;;;-1.80;99.90;;;;;;4993754;28;20038;-72
2022/04/02 04:43:00;;;;;;;0.60;0.60;;;-1.80;99.90;;;;;;5003534;28;20041;-72
2022/04/02 04:45:26;;;;;;;0.50;0.50;;;-1.70;99.90;;;;;;4995404;28;20140;-72
2022/04/02 04:47:52;;;;;;;0.70;0.70;;;-1.70;99.90;;;;;;4995715;28;20091;-72
2022/04/02 04:50:18;;;;;;;0.60;0.60;;;-1.70;99.90;;;;;;5012056;28;20481;-72
2022/04/02 04:52:44;;;;;;;0.50;0.50;;;-1.60;99.90;;;;;;5011797;28;20052;-72
2022/04/02 04:55:10;;;;;;;0.50;0.50;;;-1.60;99.90;;;;;;5008413;28;20190;-72
2022/04/02 04:57:36;;;;;;;0.60;0.60;;;-1.50;99.90;;;;;;5000696;28;20485;-72
2022/04/02 05:00:02;;;;;;;0.60;0.60;;;-1.40;99.90;;;;;;5008705;28;20417;-72
2022/04/02 05:02:30;;;;;;;1.02;1.02;;;-1.30;99.90;;;;;;4992573;28;20045;-72
2022/04/02 05:04:56;;;;;;;1.90;1.10;;;-1.20;99.90;;;;;;4996201;28;20120;-72
2022/04/02 05:07:22;;;;;;;0.60;0.60;;;-1.10;99.90;;;;;;4995706;28;20091;-73
2022/04/02 05:09:48;;;;;;;0.70;0.70;;;-0.90;99.90;;;;;;5004856;28;20093;-71
2022/04/02 05:12:15;;;;;;;0.65;0.65;;;-0.80;99.90;;;;;;4993873;28;20042;-71
2022/04/02 05:14:41;;;;;;;0.60;0.60;;;-0.60;99.90;;;;;;4993643;28;20052;-71
2022/04/02 05:17:07;;;;;;;0.95;0.95;;;-0.40;99.90;;;;;;5012533;28;20049;-71
2022/04/02 05:19:32;;;;;;;0.60;0.60;;;-0.30;99.90;;;;;;4990342;28;20228;-71
2022/04/02 05:21:58;;;;;;;1.30;1.30;;;-0.20;99.90;;;;;;5011201;28;20533;-72
2022/04/02 05:24:24;;;;;;;0.70;0.70;;;-0.20;99.90;;;;;;4995277;28;20465;-72
2022/04/02 05:26:50;;;;;;;0.90;0.90;;;-0.10;99.90;;;;;;4993943;28;20041;-71
2022/04/02 05:29:16;;;;;;;0.60;0.60;;;0.00;99.90;;;;;;4994654;28;20041;-71
2022/04/02 05:31:42;;;;;;;3.72;2.35;;;0.00;99.90;;;;;;5011678;28;20041;-71
2022/04/02 05:34:09;;;;;;;0.50;0.50;;;0.00;99.90;;;;;;5010753;28;20121;-71
2022/04/02 05:36:35;;;;;;;0.60;0.60;;;0.00;99.90;;;;;;4993788;28;20495;-71
2022/04/02 05:39:01;;;;;;;0.50;0.50;;;0.00;99.90;;;;;;4992251;28;20037;-71
2022/04/02 05:41:26;;;;;;;0.60;0.60;;;0.10;99.90;;;;;;4986558;28;20072;-72
2022/04/02 05:43:52;;;;;;;0.50;0.50;;;0.10;99.90;;;;;;5010528;28;20045;-72
2022/04/02 05:46:18;;;;;;;0.60;0.60;;;0.20;99.90;;;;;;5007907;28;20042;-73
2022/04/02 05:48:44;;;;;;;0.60;0.60;;;0.30;99.90;;;;;;5018293;28;20567;-71
2022/04/02 05:51:09;;;;;;;1.45;1.40;;;0.40;99.90;;;;;;5010833;28;20041;-71
2022/04/02 05:53:35;;;;;;;1.17;1.17;;;0.50;99.90;;;;;;4994898;28;20485;-72
2022/04/02 05:56:02;;;;;;;0.50;0.50;;;0.70;99.90;;;;;;5001177;28;20046;-72
2022/04/02 05:58:27;;;;;;;0.60;0.60;;;0.80;99.90;;;;;;5011081;28;20385;-72
2022/04/02 06:00:53;;;;;;;0.50;0.50;;;0.90;99.90;;;;;;5004873;28;20045;-71
2022/04/02 06:03:20;;;;;;;0.50;0.50;;;1.00;99.90;;;;;;4992532;28;20049;-71
2022/04/02 06:05:48;;;;;;;0.50;0.50;;;1.20;99.90;;;;;;4994112;28;20056;-72
2022/04/02 06:08:15;;;;;;;7.53;1.38;;;1.30;99.90;;;;;;5011275;28;20041;-71
2022/04/02 06:10:43;;;;;;;0.95;0.95;;;1.50;99.90;;;;;;5010914;28;20413;-73
2022/04/02 06:13:08;;;;;;;1.83;1.73;;;1.60;99.90;;;;;;5010830;28;20084;-71
2022/04/02 06:15:34;;;;;;;0.50;0.50;;;1.70;99.90;;;;;;4993769;28;20080;-71
2022/04/02 06:18:00;;;;;;;1.33;1.25;;;1.70;99.90;;;;;;4989569;28;20049;-72
2022/04/02 06:20:26;;;;;;;0.75;0.75;;;1.80;99.90;;;;;;4994938;28;20041;-72
2022/04/02 06:22:51;;;;;;;0.70;0.70;;;1.90;99.90;;;;;;4988126;28;20488;-72
2022/04/02 06:25:17;;;;;;;2.38;1.65;;;1.90;99.90;;;;;;5000698;28;20497;-71
2022/04/02 06:27:45;;;;;;;0.68;0.68;;;2.00;99.90;;;;;;5015227;28;20123;-72
2022/04/02 06:30:13;;;;;;;5.00;1.92;;;2.00;99.90;;;;;;5014162;28;20087;-72
2022/04/02 06:32:38;;;;;;;2.22;0.98;;;2.10;99.90;;;;;;5009403;28;20052;-72
2022/04/02 06:35:05;;;;;;;1.23;1.13;;;2.20;99.90;;;;;;5000885;28;20378;-72
2022/04/02 06:37:35;;;;;;;3.15;1.73;;;2.20;99.90;;;;;;5006927;28;20072;-71
2022/04/02 06:40:01;;;;;;;2.05;1.70;;;2.20;99.90;;;;;;4982797;28;20430;-71
2022/04/02 06:42:26;;;;;;;2.40;1.20;;;2.30;99.90;;;;;;5014708;28;20460;-72
2022/04/02 06:44:52;;;;;;;3.25;2.00;;;2.30;99.90;;;;;;5014228;28;20049;-71
2022/04/02 06:47:17;;;;;;;1.50;1.27;;;2.40;99.90;;;;;;4991673;28;20124;-71
2022/04/02 06:49:43;;;;;;;2.13;1.33;;;2.40;99.90;;;;;;4997556;28;20107;-71
2022/04/02 06:52:08;;;;;;;3.30;1.30;;;2.50;99.90;;;;;;5013786;28;20041;-71
2022/04/02 06:54:34;;;;;;;1.77;1.63;;;2.50;99.90;;;;;;5013235;28;20049;-72
2022/04/02 06:57:00;;;;;;;1.50;1.40;;;2.60;99.90;;;;;;5014409;28;20508;-73
2022/04/02 06:59:25;;;;;;;2.88;1.83;;;2.60;99.90;;;;;;4998147;28;20083;-71
2022/04/02 07:01:51;;;;;;;2.13;1.92;;;2.70;99.90;;;;;;4997960;28;20556;-71
2022/04/02 07:04:17;;;;;;;1.02;1.02;;;2.70;99.90;;;;;;5014664;28;20053;-71
2022/04/02 07:06:45;;;;;;;0.80;0.80;;;2.80;99.90;;;;;;5014367;28;20089;-71
2022/04/02 07:09:12;;;;;;;1.05;1.05;;;2.90;99.90;;;;;;5010639;28;20052;-72
2022/04/02 07:11:38;;;;;;;2.80;1.10;;;3.10;99.90;;;;;;5010757;28;20076;-71
2022/04/02 07:14:03;;;;;;;0.70;0.70;;;3.20;99.90;;;;;;4994396;28;20050;-72
2022/04/02 07:16:29;;;;;;;0.50;0.50;;;3.30;99.90;;;;;;4994352;28;20044;-71
2022/04/02 07:18:55;;;;;;;3.55;2.58;;;3.30;99.90;;;;;;5004866;28;20036;-71
2022/04/02 07:21:25;;;;;;;1.13;1.13;;;3.30;99.90;;;;;;5028972;28;20045;-72
2022/04/02 07:23:51;;;;;;;0.40;0.40;;;3.30;99.90;;;;;;5014317;28;20049;-72
2022/04/02 07:26:18;;;;;;;0.63;0.63;;;3.30;99.90;;;;;;4997348;28;20405;-72
2022/04/02 07:28:45;;;;;;;1.20;1.15;;;3.20;99.90;;;;;;4997049;28;20041;-72
2022/04/02 07:31:11;;;;;;;4.60;2.30;;;3.20;99.90;;;;;;5013892;28;20045;-71
2022/04/02 07:33:36;;;;;;;3.75;2.33;;;3.10;99.90;;;;;;4997311;28;20076;-71
2022/04/02 07:36:08;;;;;;;1.65;1.52;;;2.90;99.90;;;;;;4996653;28;20342;-71
2022/04/02 07:38:39;;;;;;;0.80;0.80;;;2.50;99.90;;;;;;5010851;28;20445;-72
2022/04/02 07:41:42;;;;;;;1.30;1.20;;;2.10;99.90;;;;;;5010991;28;20044;-71
2022/04/02 07:44:35;;;;;;;3.22;2.25;;;1.80;99.90;;;;;;5006284;28;20041;-72
2022/04/02 07:47:02;;;;;;;1.80;1.70;;;1.60;99.90;;;;;;5012223;28;20551;-72
2022/04/02 07:49:29;;;;;;;0.80;0.80;;;1.60;99.90;;;;;;5012981;28;20033;-72
2022/04/02 07:51:56;;;;;;;0.43;0.43;;;1.50;99.90;;;;;;5012305;28;20041;-72
2022/04/02 07:54:24;;;;;;;3.15;2.95;;;1.60;99.90;;;;;;5010956;28;20075;-71
2022/04/02 07:56:54;;;;;;;13.82;1.58;;;1.60;99.90;;;;;;5013622;28;20037;-72
2022/04/02 07:59:29;;;;;;;2.60;2.03;;;1.70;99.90;;;;;;5013104;28;20110;-72
2022/04/02 08:01:57;;;;;;;1.25;1.10;;;1.80;99.90;;;;;;4996911;28;20456;-71
2022/04/02 08:04:24;;;;;;;1.13;1.13;;;2.00;99.90;;;;;;5013429;28;20437;-72
2022/04/02 08:06:52;;;;;;;0.60;0.60;;;2.00;99.90;;;;;;4996895;28;20041;-72
2022/04/02 08:09:19;;;;;;;0.63;0.63;;;2.10;99.90;;;;;;4996441;28;20124;-72
2022/04/02 08:11:48;;;;;;;0.95;0.95;;;2.30;99.90;;;;;;5010178;28;20581;-73
2022/04/02 08:14:15;;;;;;;1.25;1.02;;;2.40;99.90;;;;;;5012580;28;20087;-73
2022/04/02 08:16:44;;;;;;;1.10;1.10;;;2.60;99.90;;;;;;4993380;28;20406;-73
2022/04/02 08:19:11;;;;;;;0.57;0.57;;;2.90;99.90;;;;;;5008556;28;20044;-73
2022/04/02 08:21:37;;;;;;;1.73;1.17;;;3.20;99.90;;;;;;5013320;28;20400;-73
2022/04/02 08:24:03;;;;;;;1.48;1.38;;;3.50;99.90;;;;;;4993774;28;20152;-72
2022/04/02 08:26:34;;;;;;;1.30;1.20;;;3.80;99.90;;;;;;4993050;28;20136;-71
2022/04/02 08:29:21;;;;;;;1.30;1.20;;;4.10;99.90;;;;;;5006831;28;20405;-72
2022/04/02 08:32:19;;;;;;;0.70;0.70;;;4.40;99.90;;;;;;5011041;28;20042;-72
2022/04/02 08:34:56;;;;;;;0.60;0.60;;;4.70;99.90;;;;;;5004328;28;20080;-72
2022/04/02 08:37:37;;;;;;;1.35;0.82;;;4.90;99.90;;;;;;5011580;28;20468;-71
2022/04/02 08:40:27;;;;;;;0.70;0.70;;;5.00;99.90;;;;;;5012598;28;20412;-72
2022/04/02 08:43:32;;;;;;;3.40;1.25;;;5.20;99.90;;;;;;5011632;28;20064;-72
2022/04/02 08:46:04;;;;;;;0.90;0.90;;;5.70;99.90;;;;;;5012373;28;20037;-72
2022/04/02 08:48:34;;;;;;;2.03;1.15;;;6.00;99.90;;;;;;4993364;28;20049;-72
2022/04/02 08:51:22;;;;;;;0.45;0.45;;;6.20;99.90;;;;;;4995761;28;20512;-72
2022/04/02 08:53:52;;;;;;;1.02;1.02;;;6.60;99.90;;;;;;4993077;28;20042;-72
2022/04/02 08:56:25;;;;;;;1.45;1.00;;;6.90;99.90;;;;;;4976908;28;20125;-72
2022/04/02 08:58:58;;;;;;;0.40;0.40;;;7.10;99.90;;;;;;5003371;28;20124;-73
2022/04/02 09:01:25;;;;;;;;;;;7.10;99.90;;;;;;4993805;28;20041;-73
2022/04/02 09:03:57;;;;;;;5.47;1.33;;;7.70;99.90;;;;;;4999163;28;19921;-72
2022/04/02 09:06:45;;;;;;;7.95;1.48;;;8.20;97.00;;;;;;5028428;28;20076;-72
2022/04/02 09:09:26;;;;;;;1.75;0.65;;;8.70;97.80;;;;;;5011690;28;20052;-73
2022/04/02 09:12:12;;;;;;;2.53;1.48;;;9.30;99.60;;;;;;5005365;28;20124;-72
2022/04/02 09:15:13;;;;;;;1.63;1.02;;;9.70;97.90;;;;;;4992404;28;20121;-72
2022/04/02 09:18:02;;;;;;;3.33;0.90;;;10.10;94.90;;;;;;5011854;28;20402;-72
2022/04/02 09:20:46;;;;;;;0.40;0.40;;;10.70;94.40;;;;;;5003745;28;20044;-72
2022/04/02 09:23:16;;;;;;;0.55;0.55;;;10.80;94.50;;;;;;4993968;28;20099;-72
2022/04/02 09:25:57;;;;;;;0.40;0.40;;;9.90;94.40;;;;;;4991686;28;20217;-73
2022/04/02 09:29:02;;;;;;;0.32;0.32;;;9.00;94.80;;;;;;5009734;28;20461;-73
2022/04/02 09:31:52;;;;;;;0.68;0.68;;;7.90;94.30;;;;;;5007804;28;20061;-73
2022/04/02 09:34:46;;;;;;;0.50;0.50;;;7.40;98.60;;;;;;4988661;28;20095;-73
2022/04/02 09:37:33;;;;;;;1.58;1.10;;;8.10;97.40;;;;;;5003379;28;20042;-72
2022/04/02 09:40:09;;;;;;;1.70;1.08;;;8.80;78.60;;;;;;5011643;28;20046;-71
2022/04/02 09:42:38;;;;;;;0.82;0.80;;;9.10;73.80;;;;;;5007623;28;20134;-72
2022/04/02 09:45:09;;;;;;;1.25;1.15;;;9.20;67.20;;;;;;5008403;28;20050;-72
2022/04/02 09:47:53;;;;;;;2.70;1.30;;;9.40;70.40;;;;;;4993938;28;20061;-72
2022/04/02 09:50:24;;;;;;;2.15;1.27;;;9.70;67.40;;;;;;4975751;28;20135;-72
2022/04/02 09:52:53;;;;;;;1.23;0.75;;;9.80;66.70;;;;;;4987055;28;20120;-72
2022/04/02 09:55:28;;;;;;;0.85;0.85;;;9.50;63.50;;;;;;4992348;28;20513;-73
2022/04/02 09:58:09;;;;;;;4.63;1.33;;;8.90;66.90;;;;;;5005351;28;20072;-71
2022/04/02 10:00:44;;;;;;;0.70;0.70;;;8.30;65.00;;;;;;4991786;28;20042;-72
2022/04/02 10:03:39;;;;;;;1.05;0.95;;;7.80;67.10;;;;;;4975471;28;20046;-72
2022/04/02 10:06:24;;;;;;;1.48;1.20;;;7.70;67.70;;;;;;4994284;28;20042;-72
2022/04/02 10:09:02;;;;;;;0.98;0.93;;;7.60;66.00;;;;;;4994730;28;20064;-72
2022/04/02 10:11:30;;;;;;;1.30;0.90;;;7.40;70.40;;;;;;5003218;28;20053;-72
2022/04/02 10:13:59;;;;;;;0.30;0.30;;;7.30;71.30;;;;;;4975503;28;20045;-72
2022/04/02 10:16:25;;;;;;;2.92;1.15;;;7.40;72.70;;;;;;4991421;28;20548;-72
2022/04/02 10:18:59;;;;;;;0.80;0.50;;;7.40;73.40;;;;;;4987073;28;20474;-72
2022/04/02 10:21:27;;;;;;;0.35;0.32;;;7.40;74.60;;;;;;5011309;28;20045;-72
2022/04/02 10:23:55;;;;;;;0.50;0.50;;;7.40;78.40;;;;;;4995179;28;20452;-72
2022/04/02 10:26:24;;;;;;;0.40;0.40;;;7.40;79.20;;;;;;4994072;28;20053;-72
2022/04/02 10:28:58;;;;;;;0.63;0.63;;;7.20;82.00;;;;;;5010293;28;20049;-72
2022/04/02 10:31:42;;;;;;;0.30;0.30;;;7.20;83.60;;;;;;5010730;28;20091;-72
2022/04/02 10:34:21;;;;;;;0.65;0.57;;;7.50;87.70;;;;;;5010955;28;20127;-71
2022/04/02 10:36:55;;;;;;;1.98;1.27;;;7.60;87.40;;;;;;5007666;28;20398;-72
2022/04/02 10:39:25;;;;;;;0.70;0.70;;;7.50;83.80;;;;;;4974977;28;20371;-72
2022/04/02 10:41:56;;;;;;;1.33;1.00;;;7.50;82.80;;;;;;5022360;28;20128;-72
2022/04/02 10:44:41;;;;;;;0.68;0.50;;;7.30;82.80;;;;;;4994270;28;20052;-72
2022/04/02 10:47:11;;;;;;;0.60;0.60;;;7.20;85.70;;;;;;5010890;28;20048;-72
2022/04/02 10:49:40;;;;;;;2.72;0.70;;;7.10;84.70;;;;;;5010786;28;20078;-72
2022/04/02 10:52:08;;;;;;;0.98;0.98;;;7.30;90.50;;;;;;4993100;28;20045;-72
2022/04/02 10:54:35;;;;;;;0.20;0.20;;;7.40;86.90;;;;;;4994392;28;20117;-72
2022/04/02 10:57:00;;;;;;;0.43;0.43;;;7.30;84.30;;;;;;5010417;28;20041;-73
2022/04/02 10:59:30;;;;;;;0.40;0.40;;;7.00;81.70;;;;;;5010244;28;20064;-72
2022/04/02 11:01:59;;;;;;;0.68;0.68;;;6.70;83.60;;;;;;4994143;28;20045;-72
2022/04/02 11:04:38;;;;;;;0.50;0.50;;;6.50;83.80;;;;;;5026487;28;20168;-72
2022/04/02 11:07:04;;;;;;;0.40;0.40;;;6.30;86.50;;;;;;5010292;28;20112;-72
2022/04/02 11:09:36;;;;;;;9.45;1.42;;;6.30;85.70;;;;;;5010551;28;20140;-72
2022/04/02 11:12:14;;;;;;;1.48;1.13;;;6.40;90.30;;;;;;5014031;28;20041;-71
2022/04/02 11:14:45;;;;;;;0.32;0.32;;;6.50;85.50;;;;;;4997751;28;20044;-71
2022/04/02 11:17:29;;;;;;;2.13;0.93;;;6.40;88.30;;;;;;5010937;28;20129;-72
2022/04/02 11:20:12;;;;;;;0.95;0.95;;;6.60;91.20;;;;;;5011560;28;20045;-71
2022/04/02 11:23:02;;;;;;;1.42;1.27;;;7.10;91.10;;;;;;4997755;28;20080;-72
2022/04/02 11:25:31;;;;;;;0.88;0.88;;;7.30;90.30;;;;;;5022977;28;20057;-72
2022/04/02 11:28:12;;;;;;;0.82;0.55;;;7.20;87.20;;;;;;5010940;28;20084;-71
2022/04/02 11:30:59;;;;;;;0.57;0.57;;;7.10;89.70;;;;;;5003314;28;20049;-72
2022/04/02 11:33:26;;;;;;;0.43;0.43;;;7.00;87.50;;;;;;4983376;28;20072;-72
2022/04/02 11:35:57;;;;;;;0.43;0.43;;;6.90;85.90;;;;;;4994026;28;20406;-72
2022/04/02 11:38:35;;;;;;;0.35;0.35;;;6.70;82.10;;;;;;5001596;28;20053;-72
2022/04/02 11:41:22;;;;;;;0.30;0.30;;;6.70;85.60;;;;;;5016972;28;20120;-71
2022/04/02 11:44:01;;;;;;;0.90;0.80;;;6.60;86.20;;;;;;5026099;28;20397;-72
2022/04/02 11:46:27;;;;;;;0.30;0.30;;;6.60;85.60;;;;;;5010738;28;20116;-71
2022/04/02 11:48:59;;;;;;;0.60;0.60;;;6.50;83.30;;;;;;5012565;28;20449;-72
2022/04/02 11:51:30;;;;;;;3.50;2.17;;;6.40;84.30;;;;;;5002333;28;20046;-72
2022/04/02 11:54:07;;;;;;;0.32;0.32;;;6.40;86.80;;;;;;5007984;28;20461;-72
2022/04/02 11:56:43;;;;;;;1.42;1.10;;;6.50;84.50;;;;;;5017354;28;20057;-71
2022/04/02 11:59:13;;;;;;;0.28;0.28;;;6.50;84.90;;;;;;5009194;28;20117;-72
2022/04/02 12:01:41;;;;;;;0.40;0.40;;;6.60;84.00;;;;;;5025306;28;20449;-71
2022/04/02 12:04:13;;;;;;;0.73;0.73;;;6.70;84.10;;;;;;4993299;28;20046;-72
2022/04/02 12:06:40;;;;;;;0.75;0.70;;;6.70;81.90;;;;;;5008985;28;20045;-72
2022/04/02 12:09:14;;;;;;;5.07;1.58;;;6.70;77.20;;;;;;5012467;28;20140;-72
2022/04/02 12:11:57;;;;;;;0.40;0.40;;;6.70;77.50;;;;;;5013149;28;20084;-72
2022/04/02 12:14:41;;;;;;;0.52;0.52;;;6.60;77.10;;;;;;5012757;28;20488;-69
2022/04/02 12:17:11;;;;;;;0.50;0.50;;;6.60;74.60;;;;;;4995507;28;20045;-72
2022/04/02 12:19:51;;;;;;;0.73;0.73;;;6.80;79.50;;;;;;5012705;28;20034;-72
2022/04/02 12:22:25;;;;;;;3.05;1.27;;;7.20;79.80;;;;;;4996044;28;20046;-72
2022/04/02 12:24:53;;;;;;;1.55;0.85;;;7.50;79.40;;;;;;5011533;28;20069;-71
2022/04/02 12:27:24;;;;;;;0.30;0.30;;;7.70;73.00;;;;;;5012418;28;20124;-72
2022/04/02 12:29:52;;;;;;;0.95;0.90;;;7.80;74.60;;;;;;5012482;28;20052;-72
2022/04/02 12:32:28;;;;;;;1.02;0.93;;;8.00;70.60;;;;;;5012754;28;20049;-71
2022/04/02 12:35:03;;;;;;;3.15;1.17;;;8.00;68.50;;;;;;5012346;28;20073;-72
2022/04/02 12:37:46;;;;;;;1.95;0.90;;;7.90;66.70;;;;;;5009114;28;20044;-71
2022/04/02 12:40:15;;;;;;;0.40;0.40;;;7.60;65.80;;;;;;4989159;28;20038;-71
2022/04/02 12:42:44;;;;;;;3.03;1.15;;;7.40;65.70;;;;;;5005914;28;20436;-72
2022/04/02 12:45:13;;;;;;;0.50;0.50;;;7.30;60.90;;;;;;5006443;28;20402;-71
2022/04/02 12:47:39;;;;;;;0.30;0.30;;;7.00;63.10;;;;;;5009601;28;20084;-71
2022/04/02 12:50:10;;;;;;;0.95;0.70;;;6.80;64.60;;;;;;5008653;28;20044;-72
2022/04/02 12:52:50;;;;;;;0.47;0.47;;;7.00;67.00;;;;;;5004505;28;20037;-72
2022/04/02 12:55:24;;;;;;;0.60;0.60;;;7.30;67.40;;;;;;4993389;28;20037;-72
2022/04/02 12:57:59;;;;;;;1.05;0.93;;;7.80;68.20;;;;;;5007780;28;20030;-72
2022/04/02 13:00:30;;;;;;;5.32;1.38;;;8.30;65.90;;;;;;5007630;28;20045;-71
2022/04/02 13:03:01;;;;;;;1.52;1.17;;;8.40;58.30;;;;;;4990469;28;20050;-72
2022/04/02 13:05:44;;;;;;;1.23;0.80;;;8.00;58.70;;;;;;5003132;28;20048;-72
2022/04/02 13:08:28;;;;;;;1.13;1.05;;;7.60;60.30;;;;;;5024844;28;20497;-72
2022/04/02 13:10:59;;;;;;;1.75;1.25;;;7.40;60.00;;;;;;4987284;28;20053;-72
2022/04/02 13:13:46;;;;;;;0.88;0.88;;;7.60;58.70;;;;;;5007987;28;20117;-72
2022/04/02 13:16:15;;;;;;;1.75;0.70;;;7.80;58.00;;;;;;5008825;28;20382;-71